createdAt,value
2019-04-28T00:02:02.735Z,2.57
2019-04-28T00:04:31.530Z,3.13
2019-04-28T00:06:58.907Z,2.20
2019-04-28T00:09:26.556Z,2.43
2019-04-28T00:11:53.965Z,3.30
2019-04-28T00:14:22.055Z,3.03
2019-04-28T00:16:51.187Z,2.67
2019-04-28T00:19:20.911Z,2.67
2019-04-28T00:21:54.274Z,2.70
2019-04-28T00:24:32.701Z,2.47
2019-04-28T00:27:02.241Z,2.80
2019-04-28T00:29:38.627Z,2.63
2019-04-28T00:31:58.715Z,2.77
2019-04-28T00:34:26.012Z,2.67
2019-04-28T00:37:02.003Z,3.40
2019-04-28T00:39:30.939Z,2.90
2019-04-28T00:41:58.444Z,2.83
2019-04-28T00:44:26.205Z,3.00
2019-04-28T00:46:53.554Z,2.60
2019-04-28T00:49:41.763Z,2.97
2019-04-28T00:52:10.837Z,3.07
2019-04-28T00:54:38.004Z,2.50
2019-04-28T00:57:05.531Z,2.73
2019-04-28T00:59:33.015Z,3.50
2019-04-28T01:02:05.055Z,3.33
2019-04-28T01:04:32.730Z,2.80
2019-04-28T01:07:01.641Z,3.30
2019-04-28T01:09:29.357Z,3.40
2019-04-28T01:11:56.844Z,3.30
2019-04-28T01:14:24.511Z,2.97
2019-04-28T01:16:59.843Z,3.07
2019-04-28T01:19:31.554Z,3.77
2019-04-28T01:22:12.824Z,3.00
2019-04-28T01:24:41.061Z,3.23
2019-04-28T01:27:20.403Z,3.37
2019-04-28T01:29:49.870Z,2.70
2019-04-28T01:32:36.544Z,3.63
2019-04-28T01:35:05.228Z,3.50
2019-04-28T01:37:32.371Z,2.87
2019-04-28T01:39:59.847Z,2.60
2019-04-28T01:42:27.194Z,2.40
2019-04-28T01:45:01.783Z,2.57
2019-04-28T01:47:30.640Z,2.90
2019-04-28T01:49:57.893Z,2.47
2019-04-28T01:52:25.152Z,2.83
2019-04-28T01:54:52.519Z,3.13
2019-04-28T01:57:21.488Z,3.20
2019-04-28T01:59:50.580Z,3.13
2019-04-28T02:02:19.985Z,2.63
2019-04-28T02:04:49.924Z,2.93
2019-04-28T02:07:20.546Z,2.67
2019-04-28T02:09:52.857Z,2.93
2019-04-28T02:12:20.886Z,2.50
2019-04-28T02:14:49.985Z,2.20
2019-04-28T02:17:20.292Z,2.90
2019-04-28T02:19:47.881Z,1.83
2019-04-28T02:22:24.479Z,2.27
2019-04-28T02:24:51.832Z,2.10
2019-04-28T02:27:20.336Z,2.90
2019-04-28T02:29:47.671Z,3.23
2019-04-28T02:32:14.832Z,2.40
2019-04-28T02:34:42.717Z,2.70
2019-04-28T02:37:11.346Z,2.60
2019-04-28T02:39:40.879Z,2.97
2019-04-28T02:42:10.670Z,2.43
2019-04-28T02:44:40.244Z,2.50
2019-04-28T02:47:06.887Z,2.33
2019-04-28T02:49:53.918Z,2.33
2019-04-28T02:52:41.448Z,2.40
2019-04-28T02:55:11.255Z,2.70
2019-04-28T02:57:40.645Z,2.30
2019-04-28T03:00:10.137Z,2.23
2019-04-28T03:02:37.094Z,2.80
2019-04-28T03:05:05.814Z,2.07
2019-04-28T03:07:33.083Z,2.77
2019-04-28T03:10:03.473Z,2.57
2019-04-28T03:12:31.435Z,1.87
2019-04-28T03:15:00.613Z,2.57
2019-04-28T03:17:30.992Z,3.23
2019-04-28T03:19:57.654Z,2.67
2019-04-28T03:22:25.142Z,2.77
2019-04-28T03:24:54.321Z,2.90
2019-04-28T03:27:35.043Z,3.90
2019-04-28T03:30:13.259Z,3.37
2019-04-28T03:32:53.071Z,3.00
2019-04-28T03:35:13.627Z,2.40
2019-04-28T03:37:41.448Z,2.40
2019-04-28T03:40:10.875Z,2.83
2019-04-28T03:42:40.955Z,3.00
2019-04-28T03:45:15.378Z,3.23
2019-04-28T03:47:42.649Z,3.37
2019-04-28T03:50:10.616Z,2.90
2019-04-28T03:52:37.869Z,2.93
2019-04-28T03:55:05.329Z,2.70
2019-04-28T03:57:32.828Z,2.87
2019-04-28T04:00:01.445Z,2.57
2019-04-28T04:02:31.196Z,2.30
2019-04-28T04:05:00.780Z,2.63
2019-04-28T04:07:27.435Z,2.33
2019-04-28T04:10:11.329Z,2.20
2019-04-28T04:12:47.343Z,2.70
2019-04-28T04:15:46.737Z,2.00
2019-04-28T04:18:20.723Z,2.60
2019-04-28T04:20:47.848Z,2.33
2019-04-28T04:23:15.245Z,2.40
2019-04-28T04:25:42.623Z,2.13
2019-04-28T04:28:10.551Z,2.20
2019-04-28T04:30:40.609Z,2.20
2019-04-28T04:33:07.365Z,2.30
2019-04-28T04:35:34.705Z,2.53
2019-04-28T04:38:02.202Z,2.30
2019-04-28T04:40:31.737Z,3.23
2019-04-28T04:43:01.265Z,2.87
2019-04-28T04:45:30.400Z,3.03
2019-04-28T04:47:57.117Z,3.40
2019-04-28T04:50:24.388Z,3.27
2019-04-28T04:52:51.650Z,3.13
2019-04-28T04:55:21.156Z,3.07
2019-04-28T04:57:50.614Z,3.83
2019-04-28T05:00:30.659Z,3.37
2019-04-28T05:03:10.474Z,3.90
2019-04-28T05:05:40.373Z,3.30
2019-04-28T05:08:07.677Z,4.63
2019-04-28T05:10:34.933Z,4.83
2019-04-28T05:13:02.191Z,3.67
2019-04-28T05:15:30.382Z,4.13
2019-04-28T05:17:57.934Z,3.50
2019-04-28T05:20:25.300Z,3.83
2019-04-28T05:23:02.798Z,3.70
2019-04-28T05:25:35.186Z,4.53
2019-04-28T05:28:03.131Z,4.37
2019-04-28T05:30:30.355Z,4.53
2019-04-28T05:32:57.550Z,3.87
2019-04-28T05:35:25.230Z,3.53
2019-04-28T05:37:52.430Z,3.37
2019-04-28T05:40:20.581Z,3.80
2019-04-28T05:43:01.058Z,4.00
2019-04-28T05:45:31.901Z,4.20
2019-04-28T05:47:59.782Z,4.33
2019-04-28T05:50:50.119Z,4.57
2019-04-28T05:53:27.070Z,4.67
2019-04-28T05:56:10.282Z,4.53
2019-04-28T05:58:50.445Z,3.80
2019-04-28T06:01:40.696Z,4.53
2019-04-28T06:04:09.591Z,4.77
2019-04-28T06:06:40.554Z,4.80
2019-04-28T06:09:26.591Z,4.90
2019-04-28T06:11:54.632Z,4.57
2019-04-28T06:14:22.019Z,4.10
2019-04-28T06:16:50.656Z,4.60
2019-04-28T06:19:17.904Z,4.27
2019-04-28T06:21:45.170Z,3.57
2019-04-28T06:24:12.429Z,3.63
2019-04-28T06:26:39.602Z,4.80
2019-04-28T06:29:07.058Z,4.43
2019-04-28T06:31:34.475Z,4.07
2019-04-28T06:34:01.881Z,4.70
2019-04-28T06:36:29.127Z,3.67
2019-04-28T06:38:56.386Z,4.13
2019-04-28T06:41:23.651Z,3.77
2019-04-28T06:43:51.019Z,4.23
2019-04-28T06:46:18.292Z,3.40
2019-04-28T06:48:45.557Z,4.83
2019-04-28T06:51:13.114Z,4.23
2019-04-28T06:53:40.448Z,4.47
2019-04-28T06:56:07.680Z,4.20
2019-04-28T06:58:34.982Z,4.40
2019-04-28T07:01:02.659Z,4.47
2019-04-28T07:03:29.802Z,4.30
2019-04-28T07:05:57.064Z,3.97
2019-04-28T07:08:24.213Z,5.20
2019-04-28T07:10:51.715Z,5.20
2019-04-28T07:13:20.670Z,3.93
2019-04-28T07:15:48.309Z,4.03
2019-04-28T07:18:15.556Z,4.30
2019-04-28T07:20:52.711Z,3.67
2019-04-28T07:23:20.093Z,3.67
2019-04-28T07:25:47.241Z,3.90
2019-04-28T07:28:14.500Z,3.40
2019-04-28T07:30:41.883Z,3.40
2019-04-28T07:33:09.694Z,4.57
2019-04-28T07:35:36.869Z,3.40
2019-04-28T07:38:04.391Z,4.20
2019-04-28T07:40:32.093Z,3.40
2019-04-28T07:42:59.469Z,3.60
2019-04-28T07:45:26.771Z,3.70
2019-04-28T07:47:54.141Z,3.80
2019-04-28T07:50:23.089Z,3.50
2019-04-28T07:53:12.695Z,4.13
2019-04-28T07:55:39.858Z,3.77
2019-04-28T07:58:07.227Z,4.20
2019-04-28T08:00:34.695Z,3.77
2019-04-28T08:03:01.993Z,4.00
2019-04-28T08:05:29.257Z,4.13
2019-04-28T08:07:56.646Z,4.13
2019-04-28T08:10:24.124Z,3.97
2019-04-28T08:12:51.303Z,3.87
2019-04-28T08:15:18.790Z,4.17
2019-04-28T08:17:45.943Z,4.03
2019-04-28T08:20:14.314Z,3.70
2019-04-28T08:22:41.581Z,3.40
2019-04-28T08:25:10.835Z,3.53
2019-04-28T08:27:38.242Z,3.13
2019-04-28T08:30:06.429Z,3.43
2019-04-28T08:32:43.308Z,3.10
2019-04-28T08:35:11.361Z,3.50
2019-04-28T08:37:38.790Z,3.70
2019-04-28T08:40:06.451Z,3.00
2019-04-28T08:42:33.847Z,3.47
2019-04-28T08:45:01.104Z,3.07
2019-04-28T08:47:28.465Z,2.97
2019-04-28T08:49:55.809Z,2.83
2019-04-28T08:52:23.313Z,2.80
2019-04-28T08:54:50.579Z,2.87
2019-04-28T08:57:17.985Z,3.17
2019-04-28T08:59:45.290Z,2.63
2019-04-28T09:02:12.666Z,2.70
2019-04-28T09:04:39.892Z,2.47
2019-04-28T09:07:07.232Z,2.73
2019-04-28T09:09:34.640Z,2.57
2019-04-28T09:12:02.021Z,3.37
2019-04-28T09:14:29.411Z,2.30
2019-04-28T09:16:56.805Z,2.50
2019-04-28T09:19:23.967Z,2.83
2019-04-28T09:21:51.251Z,2.60
2019-04-28T09:24:18.699Z,3.00
2019-04-28T09:26:45.954Z,3.23
2019-04-28T09:29:13.118Z,2.77
2019-04-28T09:31:40.403Z,2.70
2019-04-28T09:34:07.775Z,3.33
2019-04-28T09:36:35.156Z,2.60
2019-04-28T09:39:05.575Z,2.53
2019-04-28T09:41:33.761Z,2.20
2019-04-28T09:44:07.193Z,2.97
2019-04-28T09:46:36.917Z,2.93
2019-04-28T09:49:04.424Z,2.30
2019-04-28T09:51:31.898Z,3.07
2019-04-28T09:53:59.057Z,2.50
2019-04-28T09:56:26.553Z,2.70
2019-04-28T09:58:53.933Z,3.03
2019-04-28T10:01:21.733Z,2.80
2019-04-28T10:03:49.074Z,2.70
2019-04-28T10:06:16.434Z,2.77
2019-04-28T10:08:43.659Z,2.30
2019-04-28T10:11:10.950Z,2.90
2019-04-28T10:13:38.158Z,2.93
2019-04-28T10:16:05.635Z,2.90
2019-04-28T10:18:33.003Z,2.40
2019-04-28T10:21:13.437Z,2.50
2019-04-28T10:23:41.239Z,2.30
2019-04-28T10:26:08.690Z,2.47
2019-04-28T10:28:36.124Z,2.33
2019-04-28T10:31:05.643Z,3.00
2019-04-28T10:33:33.151Z,2.20
2019-04-28T10:36:00.564Z,2.40
2019-04-28T10:38:28.050Z,2.07
2019-04-28T10:41:00.855Z,1.90
2019-04-28T10:43:28.346Z,2.50
2019-04-28T10:45:56.014Z,2.40
2019-04-28T10:48:23.378Z,2.30
2019-04-28T10:50:50.589Z,1.83
2019-04-28T10:53:17.883Z,2.20
2019-04-28T10:55:45.360Z,2.30
2019-04-28T10:58:12.860Z,2.07
2019-04-28T11:00:41.043Z,2.20
2019-04-28T11:03:22.834Z,2.20
2019-04-28T11:05:50.409Z,2.47
2019-04-28T11:08:25.459Z,2.20
2019-04-28T11:10:53.294Z,2.03
2019-04-28T11:13:20.981Z,2.50
2019-04-28T11:15:48.308Z,1.83
2019-04-28T11:18:16.029Z,1.97
2019-04-28T11:20:46.550Z,3.13
2019-04-28T11:23:13.846Z,2.10
2019-04-28T11:25:41.240Z,2.80
2019-04-28T11:28:08.998Z,2.40
2019-04-28T11:30:36.480Z,2.27
2019-04-28T11:33:26.322Z,2.53
2019-04-28T11:35:53.618Z,2.40
2019-04-28T11:38:21.010Z,2.60
2019-04-28T11:40:48.391Z,2.73
2019-04-28T11:43:17.090Z,2.40
2019-04-28T11:45:48.047Z,2.90
2019-04-28T11:48:15.403Z,3.10
2019-04-28T11:50:42.654Z,3.10
2019-04-28T11:53:09.918Z,3.20
2019-04-28T11:55:37.508Z,3.10
2019-04-28T11:58:05.450Z,3.20
2019-04-28T12:00:33.720Z,2.80
2019-04-28T12:03:01.392Z,2.70
2019-04-28T12:05:46.401Z,2.80
2019-04-28T12:08:13.814Z,3.57
2019-04-28T12:10:47.044Z,2.80
2019-04-28T12:13:34.331Z,2.70
2019-04-28T12:16:24.681Z,2.97
2019-04-28T12:20:41.283Z,3.50
2019-04-28T12:23:09.847Z,3.93
2019-04-28T12:25:37.377Z,3.30
2019-04-28T12:28:04.760Z,3.00
2019-04-28T12:30:32.256Z,2.87
2019-04-28T12:32:59.499Z,3.50
2019-04-28T12:35:26.886Z,2.80
2019-04-28T12:37:54.293Z,3.23
2019-04-28T12:40:22.661Z,3.53
2019-04-28T12:42:49.977Z,3.23
2019-04-28T12:45:17.282Z,2.80
2019-04-28T12:47:44.603Z,2.93
2019-04-28T12:50:18.819Z,3.30
2019-04-28T12:52:46.116Z,3.30
2019-04-28T12:55:13.396Z,2.80
2019-04-28T12:57:40.666Z,3.03
2019-04-28T13:00:31.723Z,3.17
2019-04-28T13:03:15.109Z,2.83
2019-04-28T13:05:44.232Z,2.90
2019-04-28T13:08:11.642Z,2.83
2019-04-28T13:10:38.863Z,3.10
2019-04-28T13:13:06.466Z,3.20
2019-04-28T13:15:33.916Z,2.90
2019-04-28T13:18:01.294Z,2.80
2019-04-28T13:20:28.616Z,3.10
2019-04-28T13:22:56.030Z,2.90
2019-04-28T13:25:23.501Z,3.10
2019-04-28T13:27:50.748Z,3.00
2019-04-28T13:30:18.519Z,3.03
2019-04-28T13:32:45.854Z,3.43
2019-04-28T13:35:14.516Z,2.90
2019-04-28T13:37:41.857Z,3.20
2019-04-28T13:40:15.378Z,3.10
2019-04-28T13:42:42.803Z,2.70
2019-04-28T13:45:14.966Z,2.93
2019-04-28T13:47:42.130Z,2.93
2019-04-28T13:50:16.190Z,2.90
2019-04-28T13:52:45.108Z,3.03
2019-04-28T13:55:37.428Z,2.90
2019-04-28T13:58:04.834Z,2.70
2019-04-28T14:00:47.235Z,2.43
2019-04-28T14:03:25.115Z,2.70
2019-04-28T14:06:00.592Z,2.97
2019-04-28T14:08:27.866Z,2.77
2019-04-28T14:10:57.000Z,2.20
2019-04-28T14:13:24.471Z,2.43
2019-04-28T14:15:52.301Z,2.77
2019-04-28T14:18:20.257Z,2.40
2019-04-28T14:20:47.824Z,2.57
2019-04-28T14:23:17.885Z,2.97
2019-04-28T14:25:45.893Z,2.30
2019-04-28T14:28:20.070Z,2.20
2019-04-28T14:30:47.422Z,2.53
2019-04-28T14:33:16.485Z,2.53
2019-04-28T14:35:43.736Z,2.63
2019-04-28T14:38:11.201Z,2.77
2019-04-28T14:40:40.303Z,2.67
2019-04-28T14:43:07.643Z,3.03
2019-04-28T14:45:35.017Z,2.90
2019-04-28T14:48:02.686Z,2.30
2019-04-28T14:50:30.537Z,2.80
2019-04-28T14:52:57.696Z,3.00
2019-04-28T14:55:24.903Z,3.07
2019-04-28T14:57:52.781Z,2.87
2019-04-28T15:00:24.599Z,2.90
2019-04-28T15:02:59.444Z,3.00
2019-04-28T15:05:39.276Z,2.30
2019-04-28T15:08:25.247Z,2.70
2019-04-28T15:11:21.233Z,3.30
2019-04-28T15:13:48.518Z,2.63
2019-04-28T15:16:16.066Z,2.40
2019-04-28T15:18:47.453Z,2.97
2019-04-28T15:21:14.847Z,2.77
2019-04-28T15:23:42.172Z,2.70
2019-04-28T15:26:09.420Z,2.50
2019-04-28T15:28:36.760Z,2.80
2019-04-28T15:31:04.160Z,2.80
2019-04-28T15:33:31.491Z,2.97
2019-04-28T15:35:58.889Z,2.90
2019-04-28T15:38:26.400Z,2.47
2019-04-28T15:40:53.825Z,2.47
2019-04-28T15:43:21.131Z,2.37
2019-04-28T15:45:48.574Z,2.67
2019-04-28T15:48:16.113Z,2.40
2019-04-28T15:50:43.613Z,2.40
2019-04-28T15:53:10.952Z,2.00
2019-04-28T15:55:47.814Z,2.30
2019-04-28T15:58:33.508Z,2.30
2019-04-28T16:01:01.571Z,2.07
2019-04-28T16:03:29.135Z,2.40
2019-04-28T16:05:59.779Z,2.53
2019-04-28T16:08:26.329Z,2.20
2019-04-28T16:10:54.112Z,2.53
2019-04-28T16:13:21.864Z,2.30
2019-04-28T16:15:49.624Z,2.30
2019-04-28T16:18:17.208Z,2.17
2019-04-28T16:20:44.729Z,2.27
2019-04-28T16:23:12.005Z,2.27
2019-04-28T16:25:40.412Z,2.13
2019-04-28T16:28:07.849Z,2.23
2019-04-28T16:30:35.378Z,1.87
2019-04-28T16:33:02.931Z,2.47
2019-04-28T16:35:30.409Z,2.70
2019-04-28T16:37:57.907Z,3.43
2019-04-28T16:40:39.252Z,2.57
2019-04-28T16:43:20.482Z,2.53
2019-04-28T16:45:47.638Z,2.50
2019-04-28T16:48:14.938Z,2.87
2019-04-28T16:50:42.181Z,2.87
2019-04-28T16:53:09.511Z,2.60
2019-04-28T16:55:57.597Z,2.53
2019-04-28T16:58:37.272Z,2.50
2019-04-28T17:01:24.704Z,2.30
2019-04-28T17:03:52.482Z,2.17
2019-04-28T17:06:20.285Z,1.87
2019-04-28T17:08:47.929Z,2.30
2019-04-28T17:11:15.603Z,2.17
2019-04-28T17:13:43.344Z,1.90
2019-04-28T17:16:11.119Z,2.47
2019-04-28T17:18:38.671Z,2.20
2019-04-28T17:21:06.743Z,2.00
2019-04-28T17:23:34.106Z,2.10
2019-04-28T17:26:01.898Z,2.40
2019-04-28T17:28:29.649Z,2.53
2019-04-28T17:30:57.122Z,2.00
2019-04-28T17:33:24.626Z,2.03
2019-04-28T17:35:51.933Z,2.43
2019-04-28T17:38:19.391Z,2.77
2019-04-28T17:40:47.207Z,2.40
2019-04-28T17:43:14.837Z,2.27
2019-04-28T17:45:42.315Z,2.40
2019-04-28T17:48:22.268Z,2.10
2019-04-28T17:50:51.282Z,1.93
2019-04-28T17:53:25.655Z,2.13
2019-04-28T17:55:54.690Z,2.73
2019-04-28T17:58:22.348Z,2.27
2019-04-28T18:01:21.545Z,2.60
2019-04-28T18:04:17.455Z,2.53
2019-04-28T18:06:49.840Z,2.40
2019-04-28T18:09:18.321Z,2.30
2019-04-28T18:11:46.319Z,2.27
2019-04-28T18:14:14.897Z,2.70
2019-04-28T18:17:11.121Z,2.33
2019-04-28T18:19:42.122Z,2.47
2019-04-28T18:22:09.923Z,2.40
2019-04-28T18:24:40.006Z,2.57
2019-04-28T18:27:07.508Z,2.30
2019-04-28T18:29:35.288Z,1.97
2019-04-28T18:32:34.560Z,2.70
2019-04-28T18:35:08.725Z,2.27
2019-04-28T18:37:56.100Z,2.70
2019-04-28T18:40:45.773Z,2.40
2019-04-28T18:43:21.012Z,3.07
2019-04-28T18:45:48.706Z,2.90
2019-04-28T18:48:16.442Z,2.20
2019-04-28T18:50:44.017Z,3.00
2019-04-28T18:53:11.772Z,3.03
2019-04-28T18:55:39.445Z,3.02
2019-04-28T18:58:07.624Z,2.80
2019-04-28T19:00:43.281Z,2.40
2019-04-28T19:03:11.147Z,3.10
2019-04-28T19:05:42.090Z,3.07
2019-04-28T19:08:32.721Z,2.70
2019-04-28T19:11:22.890Z,3.03
2019-04-28T19:13:55.833Z,2.93
2019-04-28T19:16:49.123Z,2.30
2019-04-28T19:19:17.999Z,2.20
2019-04-28T19:21:56.412Z,2.20
2019-04-28T19:24:25.337Z,2.50
2019-04-28T19:26:53.175Z,2.13
2019-04-28T19:29:21.468Z,1.97
2019-04-28T19:31:49.440Z,1.80
2019-04-28T19:34:17.230Z,1.50
2019-04-28T19:36:45.148Z,1.77
2019-04-28T19:39:12.955Z,1.50
2019-04-28T19:41:40.817Z,1.90
2019-04-28T19:44:08.604Z,1.60
2019-04-28T19:46:36.397Z,1.80
2019-04-28T19:49:04.550Z,1.77
2019-04-28T19:51:32.628Z,1.90
2019-04-28T19:54:00.709Z,1.70
2019-04-28T19:56:36.941Z,2.00
2019-04-28T19:59:12.814Z,1.50
2019-04-28T20:01:40.826Z,1.80
2019-04-28T20:04:08.376Z,1.60
2019-04-28T20:06:36.126Z,1.70
2019-04-28T20:09:05.865Z,1.63
2019-04-28T20:11:33.806Z,1.83
2019-04-28T20:14:01.233Z,1.90
2019-04-28T20:16:28.669Z,1.97
2019-04-28T20:18:56.190Z,1.63
2019-04-28T20:21:23.762Z,1.93
2019-04-28T20:23:51.222Z,2.20
2019-04-28T20:26:18.651Z,1.60
2019-04-28T20:28:45.967Z,1.73
2019-04-28T20:31:13.269Z,1.93
2019-04-28T20:33:40.985Z,2.00
2019-04-28T20:36:15.072Z,2.13
2019-04-28T20:38:43.234Z,1.47
2019-04-28T20:41:22.397Z,1.80
2019-04-28T20:43:49.791Z,2.10
2019-04-28T20:46:17.198Z,1.63
2019-04-28T20:48:49.396Z,1.47
2019-04-28T20:51:17.332Z,1.63
2019-04-28T20:53:44.606Z,1.53
2019-04-28T20:56:11.884Z,1.60
2019-04-28T20:58:39.037Z,1.37
2019-04-28T21:01:06.341Z,1.83
2019-04-28T21:03:33.637Z,1.67
2019-04-28T21:06:00.931Z,1.50
2019-04-28T21:08:28.326Z,1.90
2019-04-28T21:10:55.635Z,1.87
2019-04-28T21:13:22.935Z,1.60
2019-04-28T21:15:50.118Z,1.73
2019-04-28T21:18:17.384Z,1.80
2019-04-28T21:20:44.668Z,1.90
2019-04-28T21:23:12.056Z,1.87
2019-04-28T21:25:39.337Z,1.80
2019-04-28T21:28:06.792Z,2.03
2019-04-28T21:30:39.453Z,1.87
2019-04-28T21:33:06.869Z,2.50
2019-04-28T21:35:33.960Z,2.67
2019-04-28T21:38:01.311Z,2.37
2019-04-28T21:40:28.907Z,2.50
2019-04-28T21:43:05.620Z,2.73
2019-04-28T21:46:01.543Z,3.30
2019-04-28T21:48:35.797Z,3.30
2019-04-28T21:51:03.386Z,4.13
2019-04-28T21:53:34.047Z,4.63
2019-04-28T21:56:01.408Z,7.47
2019-04-28T21:58:33.477Z,4.97
2019-04-28T22:00:58.189Z,3.77
2019-04-28T22:03:25.571Z,4.00
2019-04-28T22:05:52.918Z,3.90
2019-04-28T22:08:20.186Z,4.10
2019-04-28T22:10:47.553Z,4.17
2019-04-28T22:13:14.928Z,3.50
2019-04-28T22:15:42.123Z,4.03
2019-04-28T22:18:09.618Z,3.80
2019-04-28T22:20:36.833Z,4.47
2019-04-28T22:23:18.048Z,3.90
2019-04-28T22:25:36.058Z,4.93
2019-04-28T22:28:03.427Z,5.23
2019-04-28T22:30:30.798Z,5.50
2019-04-28T22:32:58.003Z,6.33
2019-04-28T22:35:25.473Z,5.93
2019-04-28T22:37:52.742Z,5.60
2019-04-28T22:40:20.129Z,5.17
2019-04-28T22:42:47.542Z,6.10
2019-04-28T22:45:15.261Z,6.10
2019-04-28T22:47:42.646Z,6.13
2019-04-28T22:50:33.749Z,5.17
2019-04-28T22:53:01.238Z,6.20
2019-04-28T22:55:30.040Z,5.43
2019-04-28T22:58:32.310Z,5.53
2019-04-28T23:01:05.558Z,5.10
2019-04-28T23:03:47.478Z,4.23
2019-04-28T23:06:15.052Z,5.27
2019-04-28T23:08:42.341Z,4.27
2019-04-28T23:11:09.697Z,4.20
2019-04-28T23:13:37.128Z,4.67
2019-04-28T23:16:04.631Z,4.53
2019-04-28T23:18:32.020Z,3.67
2019-04-28T23:21:02.857Z,3.93
2019-04-28T23:23:30.612Z,3.73
2019-04-28T23:25:57.742Z,3.30
2019-04-28T23:28:25.024Z,4.47
2019-04-28T23:30:52.187Z,4.27
2019-04-28T23:33:19.549Z,4.60
2019-04-28T23:35:46.919Z,4.50
2019-04-28T23:38:14.080Z,4.83
2019-04-28T23:40:57.098Z,5.27
2019-04-28T23:43:24.512Z,4.93
2019-04-28T23:45:51.684Z,5.50
2019-04-28T23:48:18.963Z,5.63
2019-04-28T23:51:00.964Z,5.57
2019-04-28T23:53:46.333Z,5.30
2019-04-28T23:56:13.920Z,5.53
2019-04-28T23:58:41.117Z,5.63
